Bemidji Regional Airport
KBJI : now visible

Airfield :











YOU CAN JOIN US ON...

 
LOGIN :

Register | Disclaimer

   EN    FR    IT 

 









Legend :    VFR   Marginal VFR   IFR   Intensive IFR   Very Intensive IFR
Visi :
Ceiling :
>= 8 km
>= 3000ft
5 to 8 km
1000 to 3000 ft
1500m to 5 km
500 to 1000 ft
800 to 1500m
200 to 500 ft
< 800m
< 200 ft
Symbols :   Thunderstorms  Fog  Heavy snow  Heavy precipitations  Wind > 20 kt






- Airport Elevation : 1391 ft


KBJI - Bemidji Regional

CURRENT METAR :
  • 261535Z AUTO 08008KT 10SM CLR 17/04 A2976 RMK AO2 T01670036

EXPIRED METARs :
  • 261515Z AUTO 07005KT 10SM CLR 16/04 A2977 RMK AO2 T01610038
  • 261455Z AUTO 10005KT 10SM CLR 16/05 A2976 RMK AO2 T01600053
  • 261435Z AUTO 14005KT 10SM CLR 16/05 A2975 RMK AO2 T01550050
  • 261415Z AUTO 14005KT 10SM CLR 15/07 A2975 RMK AO2 T01490066
  • 261355Z AUTO 14007KT 10SM CLR 14/08 A2975 RMK AO2 T01410075
  • 261335Z AUTO 13005KT 10SM CLR 13/07 A2975 RMK AO2 T01300074
  • 261315Z AUTO 12005KT 10SM CLR 12/07 A2974 RMK AO2 T01210073
  • 261255Z AUTO 12004KT 10SM CLR 11/08 A2975 RMK AO2 T01120077
  • 261235Z AUTO 13004KT 10SM CLR 10/08 A2974 RMK AO2 T01040079
  • 261215Z AUTO 13003KT 10SM CLR 09/09 A2974 RMK AO2 T00940085
  • 261155Z AUTO 00000KT 10SM CLR 07/07 A2974 RMK AO2 T00730073 10073 20016
  • 261135Z AUTO 00000KT 10SM CLR 04/04 A2974 RMK AO2 T00430043
  • 261115Z AUTO 00000KT 2SM BR CLR 05/05 A2975 RMK AO2 VIS 1/2V5 T00450045
  • 261055Z AUTO 00000KT 10SM CLR 05/05 A2975 RMK AO2 T00500050

TAF KBJI
Valid from the 26 at 12:00 until the 27 at 12:00 UTC


261129Z 2612/2712 VRB03KT P6SM SCT100
KZMP FIR / North America



MET'MAP, your aeronautical weather chart ! - Copyright ORBIFLY December 2007 - Disclaimer

ORBIFLY MET'MAP TEAM :

Programming & Development : Alexandra Zaïnal
Original concept : Baudouin d'Aumeries
Technical & hardware support : Manuel Goepfert
Assistance : Marc-Olivier Méhu




SOURCES & CREDITS :

   NOAA       Earth
Advisory